createdAt,value
2023-04-14T00:00:39.202Z,0.9
2023-04-14T00:01:47.791Z,1
2023-04-14T00:02:56.222Z,1
2023-04-14T00:04:04.705Z,1
2023-04-14T00:05:13.107Z,1.1
2023-04-14T00:06:21.448Z,1.1
2023-04-14T00:07:29.816Z,1.1
2023-04-14T00:08:38.411Z,1.2
2023-04-14T00:09:46.822Z,1.2
2023-04-14T00:10:55.140Z,1.2
2023-04-14T00:12:03.727Z,1
2023-04-14T00:13:12.087Z,1
2023-04-14T00:14:20.454Z,1
2023-04-14T00:15:29.057Z,1.4
2023-04-14T00:16:37.456Z,1.4
2023-04-14T00:17:45.905Z,1.4
2023-04-14T00:18:54.431Z,1.1
2023-04-14T00:20:02.780Z,1.1
2023-04-14T00:21:11.147Z,1.1
2023-04-14T00:22:19.714Z,1.2
2023-04-14T00:23:28.137Z,1.2
2023-04-14T00:24:36.496Z,1.2
2023-04-14T00:25:45.088Z,0.8
2023-04-14T00:26:53.436Z,0.8
2023-04-14T00:28:01.816Z,0.8
2023-04-14T00:29:10.393Z,1
2023-04-14T00:30:18.752Z,1
2023-04-14T00:31:27.141Z,1
2023-04-14T00:32:35.688Z,1
2023-04-14T00:33:44.061Z,1
2023-04-14T00:34:52.474Z,1
2023-04-14T00:36:01.078Z,1
2023-04-14T00:37:09.432Z,1
2023-04-14T00:38:17.832Z,1
2023-04-14T00:39:26.440Z,1.1
2023-04-14T00:40:34.796Z,1.1
2023-04-14T00:41:43.185Z,1.1
2023-04-14T00:42:51.768Z,1
2023-04-14T00:44:00.156Z,1
2023-04-14T00:45:08.526Z,1
2023-04-14T00:46:17.243Z,1
2023-04-14T00:47:25.477Z,1
2023-04-14T00:48:33.897Z,1
2023-04-14T00:49:42.471Z,1.2
2023-04-14T00:50:50.830Z,1.2
2023-04-14T00:51:59.214Z,1.2
2023-04-14T00:53:07.790Z,0.9
2023-04-14T00:54:16.151Z,0.9
2023-04-14T00:55:24.571Z,0.9
2023-04-14T00:56:33.135Z,1.1
2023-04-14T00:57:41.560Z,1.1
2023-04-14T00:58:49.925Z,1.1
2023-04-14T00:59:58.488Z,1.2
2023-04-14T01:01:06.870Z,1.2
2023-04-14T01:02:15.308Z,1.2
2023-04-14T01:03:23.983Z,1.4
2023-04-14T01:04:45.060Z,1.4
2023-04-14T01:05:40.544Z,1.4
2023-04-14T01:06:49.118Z,1
2023-04-14T01:07:57.474Z,1
2023-04-14T01:09:05.841Z,1
2023-04-14T01:10:14.386Z,1.2
2023-04-14T01:11:22.762Z,1.2
2023-04-14T01:12:31.162Z,1.2
2023-04-14T01:13:39.746Z,1.2
2023-04-14T01:14:48.108Z,1.2
2023-04-14T01:15:56.535Z,1.2
2023-04-14T01:17:05.040Z,1.4
2023-04-14T01:18:13.406Z,1.4
2023-04-14T01:19:21.772Z,1.4
2023-04-14T01:20:30.361Z,1.1
2023-04-14T01:21:38.755Z,1.1
2023-04-14T01:22:47.124Z,1.1
2023-04-14T01:23:55.682Z,1.1
2023-04-14T01:25:04.045Z,1.1
2023-04-14T01:26:12.408Z,1.1
2023-04-14T01:27:20.984Z,1.4
2023-04-14T01:28:29.341Z,1.4
2023-04-14T01:29:37.736Z,1.4
2023-04-14T01:30:46.273Z,1.4
2023-04-14T01:31:54.738Z,1.4
2023-04-14T01:33:03.063Z,1.4
2023-04-14T01:34:11.620Z,1.4
2023-04-14T01:35:19.993Z,1.4
2023-04-14T01:36:28.325Z,1.4
2023-04-14T01:37:36.902Z,1.2
2023-04-14T01:38:45.274Z,1.2
2023-04-14T01:39:53.623Z,1.2
2023-04-14T01:41:02.229Z,1.6
2023-04-14T01:42:10.546Z,1.6
2023-04-14T01:43:18.944Z,1.6
2023-04-14T01:44:27.505Z,1.4
2023-04-14T01:45:35.908Z,1.4
2023-04-14T01:46:44.221Z,1.4
2023-04-14T01:47:52.853Z,1.6
2023-04-14T01:49:01.392Z,1.6
2023-04-14T01:50:09.526Z,1.6
2023-04-14T01:51:18.110Z,1.5
2023-04-14T01:52:26.482Z,1.5
2023-04-14T01:53:34.837Z,1.5
2023-04-14T01:54:43.407Z,1.5
2023-04-14T01:55:51.791Z,1.5
2023-04-14T01:57:00.157Z,1.5
2023-04-14T01:58:08.748Z,1.6
2023-04-14T01:59:17.098Z,1.6
2023-04-14T02:00:25.517Z,1.6
2023-04-14T02:01:34.113Z,1.8
2023-04-14T02:02:42.491Z,1.8
2023-04-14T02:03:50.912Z,1.8
2023-04-14T02:04:59.356Z,1.6
2023-04-14T02:06:07.741Z,1.6
2023-04-14T02:07:16.116Z,1.6
2023-04-14T02:08:24.686Z,1.4
2023-04-14T02:09:33.039Z,1.4
2023-04-14T02:10:41.490Z,1.4
2023-04-14T02:11:50.061Z,1.9
2023-04-14T02:12:58.478Z,1.9
2023-04-14T02:14:06.802Z,1.9
2023-04-14T02:15:15.380Z,1.5
2023-04-14T02:16:23.776Z,1.5
2023-04-14T02:17:32.194Z,1.5
2023-04-14T02:18:40.722Z,1.7
2023-04-14T02:19:49.035Z,1.7
2023-04-14T02:20:57.422Z,1.7
2023-04-14T02:22:05.973Z,1.6
2023-04-14T02:23:14.347Z,1.6
2023-04-14T02:24:22.712Z,1.6
2023-04-14T02:25:31.254Z,1.6
2023-04-14T02:26:39.642Z,1.6
2023-04-14T02:27:48.016Z,1.6
2023-04-14T02:28:56.577Z,1.6
2023-04-14T02:30:04.942Z,1.6
2023-04-14T02:31:13.334Z,1.6
2023-04-14T02:32:21.882Z,1.5
2023-04-14T02:33:30.240Z,1.5
2023-04-14T02:34:38.585Z,1.5
2023-04-14T02:35:47.147Z,1.5
2023-04-14T02:36:55.485Z,1.5
2023-04-14T02:38:03.847Z,1.5
2023-04-14T02:39:12.419Z,1.6
2023-04-14T02:40:20.773Z,1.6
2023-04-14T02:41:29.132Z,1.6
2023-04-14T02:42:37.687Z,1.8
2023-04-14T02:43:46.054Z,1.8
2023-04-14T02:44:54.431Z,1.8
2023-04-14T02:46:03.026Z,1.4
2023-04-14T02:47:11.381Z,1.4
2023-04-14T02:48:19.730Z,1.4
2023-04-14T02:49:28.312Z,1.7
2023-04-14T02:50:36.658Z,1.7
2023-04-14T02:51:45.004Z,1.7
2023-04-14T02:52:53.581Z,1.3
2023-04-14T02:54:01.931Z,1.3
2023-04-14T02:55:10.259Z,1.3
2023-04-14T02:56:18.821Z,1.7
2023-04-14T02:57:27.196Z,1.7
2023-04-14T02:58:35.559Z,1.7
2023-04-14T02:59:44.112Z,1.5
2023-04-14T03:00:52.474Z,1.5
2023-04-14T03:02:00.907Z,1.5
2023-04-14T03:03:09.541Z,1.5
2023-04-14T03:04:17.779Z,1.5
2023-04-14T03:05:26.155Z,1.5
2023-04-14T03:06:34.698Z,1.6
2023-04-14T03:07:43.099Z,1.6
2023-04-14T03:08:51.480Z,1.6
2023-04-14T03:10:00.072Z,1.9
2023-04-14T03:11:08.420Z,1.9
2023-04-14T03:12:16.786Z,1.9
2023-04-14T03:13:25.352Z,2
2023-04-14T03:14:33.719Z,2
2023-04-14T03:15:42.074Z,2
2023-04-14T03:16:51.750Z,2
2023-04-14T03:17:59.057Z,2
2023-04-14T03:19:07.348Z,2
2023-04-14T03:20:15.942Z,1.9
2023-04-14T03:21:24.326Z,1.9
2023-04-14T03:22:32.681Z,1.9
2023-04-14T03:23:41.217Z,2.3
2023-04-14T03:24:49.571Z,2.3
2023-04-14T03:25:57.960Z,2.3
2023-04-14T03:27:06.543Z,2.2
2023-04-14T03:28:14.876Z,2.2
2023-04-14T03:29:23.238Z,2.2
2023-04-14T03:30:31.803Z,2.3
2023-04-14T03:31:40.233Z,2.3
2023-04-14T03:32:48.537Z,2.3
2023-04-14T03:33:57.130Z,2.7
2023-04-14T03:35:05.442Z,2.7
2023-04-14T03:36:13.824Z,2.7
2023-04-14T03:37:22.417Z,2.7
2023-04-14T03:38:30.753Z,2.7
2023-04-14T03:39:39.102Z,2.7
2023-04-14T03:40:47.717Z,2.5
2023-04-14T03:41:55.994Z,2.5
2023-04-14T03:43:04.337Z,2.5
2023-04-14T03:44:12.903Z,2.7
2023-04-14T03:45:21.276Z,2.7
2023-04-14T03:46:29.652Z,2.7
2023-04-14T03:47:38.185Z,2.5
2023-04-14T03:48:46.532Z,2.5
2023-04-14T03:49:54.880Z,2.5
2023-04-14T03:51:03.480Z,2.6
2023-04-14T03:52:11.831Z,2.6
2023-04-14T03:53:20.210Z,2.6
2023-04-14T03:54:28.749Z,2.9
2023-04-14T03:55:37.104Z,2.9
2023-04-14T03:56:45.469Z,2.9
2023-04-14T03:57:54.009Z,2.6
2023-04-14T03:59:02.550Z,2.6
2023-04-14T04:00:10.721Z,2.6
2023-04-14T04:01:19.302Z,2.7
2023-04-14T04:02:27.722Z,2.7
2023-04-14T04:03:36.227Z,2.7
2023-04-14T04:04:44.635Z,2.6
2023-04-14T04:05:52.916Z,2.6
2023-04-14T04:07:01.274Z,2.6
2023-04-14T04:08:09.849Z,3.4
2023-04-14T04:09:18.221Z,3.4
2023-04-14T04:10:26.587Z,3.4
2023-04-14T04:11:35.122Z,2.7
2023-04-14T04:12:43.476Z,2.7
2023-04-14T04:13:51.850Z,2.7
2023-04-14T04:15:00.431Z,2.9
2023-04-14T04:16:08.782Z,2.9
2023-04-14T04:17:17.185Z,2.9
2023-04-14T04:18:25.734Z,3
2023-04-14T04:19:34.078Z,3
2023-04-14T04:20:42.441Z,3
2023-04-14T04:21:51.015Z,3.1
2023-04-14T04:22:59.363Z,3.1
2023-04-14T04:24:07.726Z,3.1
2023-04-14T04:25:16.336Z,2.9
2023-04-14T04:26:24.668Z,2.9
2023-04-14T04:27:33.021Z,2.9
2023-04-14T04:28:41.602Z,3.5
2023-04-14T04:29:49.960Z,3.5
2023-04-14T04:30:58.353Z,3.5
2023-04-14T04:32:06.935Z,3.6
2023-04-14T04:33:15.305Z,3.6
2023-04-14T04:34:23.634Z,3.6
2023-04-14T04:35:32.253Z,3.6
2023-04-14T04:36:40.608Z,3.6
2023-04-14T04:37:49.006Z,3.6
2023-04-14T04:38:57.581Z,3.9
2023-04-14T04:40:05.963Z,3.9
2023-04-14T04:41:14.350Z,3.9
2023-04-14T04:42:22.899Z,3.8
2023-04-14T04:43:31.244Z,3.8
2023-04-14T04:44:39.599Z,3.8
2023-04-14T04:45:48.513Z,4
2023-04-14T04:46:56.799Z,4
2023-04-14T04:48:05.188Z,4
2023-04-14T04:49:13.715Z,4.2
2023-04-14T04:50:22.072Z,4.2
2023-04-14T04:51:30.437Z,4.2
2023-04-14T04:52:38.992Z,3.9
2023-04-14T04:53:47.394Z,3.9
2023-04-14T04:54:55.755Z,3.9
2023-04-14T04:56:04.321Z,4
2023-04-14T04:57:12.705Z,4
2023-04-14T04:58:21.036Z,4
2023-04-14T04:59:29.598Z,4
2023-04-14T05:00:37.956Z,4
2023-04-14T05:01:46.360Z,4
2023-04-14T05:02:54.943Z,4.4
2023-04-14T05:04:03.271Z,4.4
2023-04-14T05:05:11.626Z,4.4
2023-04-14T05:06:20.274Z,4.5
2023-04-14T05:07:28.527Z,4.5
2023-04-14T05:08:36.863Z,4.5
2023-04-14T05:09:45.384Z,4.5
2023-04-14T05:10:53.743Z,4.5
2023-04-14T05:12:02.079Z,4.5
2023-04-14T05:13:10.643Z,4
2023-04-14T05:14:18.959Z,4
2023-04-14T05:15:27.327Z,4
2023-04-14T05:16:35.830Z,4.2
2023-04-14T05:17:44.192Z,4.2
2023-04-14T05:18:52.502Z,4.2
2023-04-14T05:20:01.048Z,4.7
2023-04-14T05:21:09.377Z,4.7
2023-04-14T05:22:17.728Z,4.7
2023-04-14T05:23:26.251Z,4.5
2023-04-14T05:24:34.593Z,4.5
2023-04-14T05:25:42.955Z,4.5
2023-04-14T05:26:58.247Z,5.4
2023-04-14T05:27:59.832Z,5.4
2023-04-14T05:29:08.194Z,5.4
2023-04-14T05:30:16.730Z,5.6
2023-04-14T05:31:25.087Z,5.6
2023-04-14T05:32:33.395Z,5.6
2023-04-14T05:33:41.922Z,6.2
2023-04-14T05:34:50.248Z,6.2
2023-04-14T05:35:58.584Z,6.2
2023-04-14T05:37:07.124Z,6.5
2023-04-14T05:38:15.460Z,6.5
2023-04-14T05:39:23.822Z,6.5
2023-04-14T05:40:32.392Z,6.1
2023-04-14T05:41:40.710Z,6.1
2023-04-14T05:42:49.044Z,6.1
2023-04-14T05:43:57.583Z,7
2023-04-14T05:45:05.957Z,7
2023-04-14T05:46:14.310Z,7
2023-04-14T05:47:22.821Z,6.7
2023-04-14T05:48:31.196Z,6.7
2023-04-14T05:49:39.480Z,6.7
2023-04-14T05:50:48.005Z,6.6
2023-04-14T05:51:56.370Z,6.6
2023-04-14T05:53:04.735Z,6.6
2023-04-14T05:54:13.316Z,6.2
2023-04-14T05:55:21.657Z,6.2
2023-04-14T05:56:29.996Z,6.2
2023-04-14T05:57:38.540Z,5.8
2023-04-14T05:58:46.898Z,5.8
2023-04-14T05:59:57.030Z,5.8
2023-04-14T06:01:03.795Z,6.1
2023-04-14T06:02:12.150Z,6.1
2023-04-14T06:03:20.588Z,6.1
2023-04-14T06:04:29.008Z,6.2
2023-04-14T06:05:37.323Z,6.2
2023-04-14T06:06:45.676Z,6.2
2023-04-14T06:07:54.235Z,6
2023-04-14T06:09:02.663Z,6
2023-04-14T06:10:10.978Z,6
2023-04-14T06:11:19.551Z,5.6
2023-04-14T06:12:27.890Z,5.6
2023-04-14T06:13:36.623Z,5.6
2023-04-14T06:14:44.822Z,5.1
2023-04-14T06:15:53.191Z,5.1
2023-04-14T06:17:01.666Z,5.1
2023-04-14T06:18:10.154Z,21.299999
2023-04-14T06:19:18.525Z,21.299999
2023-04-14T06:20:26.879Z,21.299999
2023-04-14T06:21:35.454Z,10.2
2023-04-14T06:22:43.867Z,10.2
2023-04-14T06:23:52.199Z,10.2
2023-04-14T06:25:00.768Z,6.9
2023-04-14T06:26:09.152Z,6.9
2023-04-14T06:27:17.514Z,6.9
2023-04-14T06:28:26.094Z,7.7
2023-04-14T06:29:34.465Z,7.7
2023-04-14T06:30:42.824Z,7.7
2023-04-14T06:31:51.472Z,11.6
2023-04-14T06:32:59.856Z,11.6
2023-04-14T06:34:08.200Z,11.6
2023-04-14T06:35:26.001Z,8
2023-04-14T06:36:25.156Z,8
2023-04-14T06:37:33.531Z,8
2023-04-14T06:38:42.117Z,8.5
2023-04-14T06:39:50.483Z,8.5
2023-04-14T06:40:58.850Z,8.5
2023-04-14T06:42:07.449Z,6.7
2023-04-14T06:43:15.822Z,6.7
2023-04-14T06:44:24.186Z,6.7
2023-04-14T06:45:32.867Z,8
2023-04-14T06:46:41.204Z,8
2023-04-14T06:47:49.629Z,8
2023-04-14T06:48:58.223Z,7.3
2023-04-14T06:50:06.559Z,7.3
2023-04-14T06:51:14.936Z,7.3
2023-04-14T06:52:23.511Z,7.6
2023-04-14T06:53:31.899Z,7.6
2023-04-14T06:54:40.296Z,7.6
2023-04-14T06:55:48.847Z,8.8
2023-04-14T06:56:57.772Z,8.8
2023-04-14T06:58:05.629Z,8.8
2023-04-14T06:59:14.200Z,7
2023-04-14T07:00:22.573Z,7
2023-04-14T07:01:30.968Z,7
2023-04-14T07:02:39.544Z,7.5
2023-04-14T07:03:47.894Z,7.5
2023-04-14T07:04:56.335Z,7.5
2023-04-14T07:06:04.853Z,7.4
2023-04-14T07:07:13.226Z,7.4
2023-04-14T07:08:21.661Z,7.4
2023-04-14T07:09:30.289Z,7.5
2023-04-14T07:10:38.589Z,7.5
2023-04-14T07:11:46.956Z,7.5
2023-04-14T07:12:55.534Z,6.8
2023-04-14T07:14:04.049Z,6.8
2023-04-14T07:15:12.285Z,6.8
2023-04-14T07:16:20.924Z,8.3
2023-04-14T07:17:29.250Z,8.3
2023-04-14T07:18:37.633Z,8.3
2023-04-14T07:19:46.216Z,7.5
2023-04-14T07:20:54.598Z,7.5
2023-04-14T07:22:02.939Z,7.5
2023-04-14T07:23:11.525Z,10.5
2023-04-14T07:24:19.900Z,10.5
2023-04-14T07:25:28.293Z,10.5
2023-04-14T07:26:36.822Z,11.5
2023-04-14T07:27:56.445Z,11.5
2023-04-14T07:28:53.593Z,11.5
2023-04-14T07:30:02.255Z,9.9
2023-04-14T07:31:10.579Z,9.9
2023-04-14T07:32:18.897Z,9.9
2023-04-14T07:33:27.545Z,10.3
2023-04-14T07:34:35.918Z,10.3
2023-04-14T07:35:54.693Z,10.3
2023-04-14T07:36:52.952Z,9.6
2023-04-14T07:38:01.315Z,9.6
2023-04-14T07:39:09.688Z,9.6
2023-04-14T07:40:18.276Z,8.5
2023-04-14T07:41:26.689Z,8.5
2023-04-14T07:42:35.034Z,8.5
2023-04-14T07:43:43.630Z,8.4
2023-04-14T07:44:52.037Z,8.4
2023-04-14T07:46:00.469Z,8.4
2023-04-14T07:47:09.013Z,10.9
2023-04-14T07:48:17.427Z,10.9
2023-04-14T07:49:25.810Z,10.9
2023-04-14T07:50:34.434Z,10.3
2023-04-14T07:51:42.790Z,10.3
2023-04-14T07:52:51.222Z,10.3
2023-04-14T07:53:59.969Z,15.2
2023-04-14T07:55:08.146Z,15.2
2023-04-14T07:56:16.503Z,15.2
2023-04-14T07:57:25.069Z,8.5
2023-04-14T07:58:33.441Z,8.5
2023-04-14T07:59:41.797Z,8.5
2023-04-14T08:00:50.373Z,10.2
2023-04-14T08:01:58.819Z,10.2
2023-04-14T08:03:07.224Z,10.2
2023-04-14T08:04:15.835Z,10.6
2023-04-14T08:05:24.086Z,10.6
2023-04-14T08:06:32.438Z,10.6
2023-04-14T08:07:41.043Z,9
2023-04-14T08:08:49.435Z,9
2023-04-14T08:09:57.763Z,9
2023-04-14T08:11:06.359Z,10.7
2023-04-14T08:12:14.722Z,10.7
2023-04-14T08:13:23.115Z,10.7
2023-04-14T08:14:31.669Z,64.199997
2023-04-14T08:15:40.035Z,64.199997
2023-04-14T08:16:48.408Z,64.199997
2023-04-14T08:17:56.945Z,9.8
2023-04-14T08:19:05.464Z,9.8
2023-04-14T08:20:13.643Z,9.8
2023-04-14T08:21:22.186Z,9.1
2023-04-14T08:22:30.536Z,9.1
2023-04-14T08:23:38.884Z,9.1
2023-04-14T08:24:47.448Z,8.1
2023-04-14T08:25:55.780Z,8.1
2023-04-14T08:27:04.198Z,8.1
2023-04-14T08:28:12.766Z,9.3
2023-04-14T08:29:21.126Z,9.3
2023-04-14T08:30:29.515Z,9.3
2023-04-14T08:31:38.149Z,8.5
2023-04-14T08:32:46.457Z,8.5
2023-04-14T08:33:54.783Z,8.5
2023-04-14T08:35:36.788Z,8.8
2023-04-14T08:36:11.654Z,8.8
2023-04-14T08:37:19.991Z,8.8
2023-04-14T08:38:28.571Z,7.6
2023-04-14T08:39:36.930Z,7.6
2023-04-14T08:40:45.303Z,7.6
2023-04-14T08:41:53.900Z,7.2
2023-04-14T08:43:02.206Z,7.2
2023-04-14T08:44:10.563Z,7.2
2023-04-14T08:45:19.148Z,7.5
2023-04-14T08:46:27.592Z,7.5
2023-04-14T08:47:35.974Z,7.5
2023-04-14T08:48:44.522Z,7.7
2023-04-14T08:49:52.884Z,7.7
2023-04-14T08:51:01.261Z,7.7
2023-04-14T08:52:09.793Z,8
2023-04-14T08:53:18.163Z,8
2023-04-14T08:54:26.534Z,8
2023-04-14T08:55:35.109Z,7.6
2023-04-14T08:56:43.538Z,7.6
2023-04-14T08:57:51.859Z,7.6
2023-04-14T08:59:00.464Z,8.2
2023-04-14T09:00:08.889Z,8.2
2023-04-14T09:01:17.477Z,8.2
2023-04-14T09:02:25.873Z,8.9
2023-04-14T09:03:34.290Z,8.9
2023-04-14T09:04:42.670Z,8.9
2023-04-14T09:05:51.095Z,8.7
2023-04-14T09:06:59.446Z,8.7
2023-04-14T09:08:07.827Z,8.7
2023-04-14T09:09:16.396Z,8.8
2023-04-14T09:10:24.769Z,8.8
2023-04-14T09:11:33.212Z,8.8
2023-04-14T09:12:42.035Z,8.3
2023-04-14T09:13:50.107Z,8.3
2023-04-14T09:14:58.470Z,8.3
2023-04-14T09:16:07.029Z,8.3
2023-04-14T09:17:15.453Z,8.3
2023-04-14T09:18:23.800Z,8.3
2023-04-14T09:19:32.381Z,7.4
2023-04-14T09:20:41.833Z,7.4
2023-04-14T09:21:51.228Z,7.4
2023-04-14T09:22:57.745Z,7.8
2023-04-14T09:24:06.173Z,7.8
2023-04-14T09:25:14.600Z,7.8
2023-04-14T09:26:23.176Z,7.1
2023-04-14T09:27:31.554Z,7.1
2023-04-14T09:28:39.990Z,7.1
2023-04-14T09:29:48.550Z,6.6
2023-04-14T09:30:56.965Z,6.6
2023-04-14T09:32:05.328Z,6.6
2023-04-14T09:33:14.001Z,6.5
2023-04-14T09:34:22.408Z,6.5
2023-04-14T09:35:30.770Z,6.5
2023-04-14T09:36:39.384Z,6.4
2023-04-14T09:37:47.803Z,6.4
2023-04-14T09:38:56.158Z,6.4
2023-04-14T09:40:04.756Z,6.2
2023-04-14T09:41:13.158Z,6.2
2023-04-14T09:42:21.551Z,6.2
2023-04-14T09:43:30.220Z,6
2023-04-14T09:44:38.727Z,6
2023-04-14T09:45:47.117Z,6
2023-04-14T09:46:56.759Z,5.7
2023-04-14T09:48:04.133Z,5.7
2023-04-14T09:49:12.491Z,5.7
2023-04-14T09:50:21.096Z,6
2023-04-14T09:51:29.472Z,6
2023-04-14T09:52:37.906Z,6
2023-04-14T09:53:48.542Z,6.1
2023-04-14T09:54:54.914Z,6.1
2023-04-14T09:56:03.317Z,6.1
2023-04-14T09:57:11.924Z,5.1
2023-04-14T09:58:20.326Z,5.1
2023-04-14T09:59:28.700Z,5.1
2023-04-14T10:00:37.345Z,4.7
2023-04-14T10:01:45.712Z,4.7
2023-04-14T10:02:54.185Z,4.7
2023-04-14T10:04:02.738Z,4.6
2023-04-14T10:05:11.081Z,4.6
2023-04-14T10:06:19.441Z,4.6
2023-04-14T10:07:28.063Z,5.6
2023-04-14T10:08:36.471Z,5.6
2023-04-14T10:09:44.835Z,5.6
2023-04-14T10:10:53.417Z,5.9
2023-04-14T10:12:01.806Z,5.9
2023-04-14T10:13:10.199Z,5.9
2023-04-14T10:14:18.751Z,6
2023-04-14T10:15:27.123Z,6
2023-04-14T10:16:35.596Z,6
2023-04-14T10:17:44.113Z,6.7
2023-04-14T10:18:52.488Z,6.7
2023-04-14T10:20:00.860Z,6.7
2023-04-14T10:21:09.447Z,6.2
2023-04-14T10:22:17.791Z,6.2
2023-04-14T10:23:26.169Z,6.2
2023-04-14T10:24:34.770Z,6.6
2023-04-14T10:25:43.107Z,6.6
2023-04-14T10:26:51.462Z,6.6
2023-04-14T10:28:00.050Z,6.4
2023-04-14T10:29:08.435Z,6.4
2023-04-14T10:30:16.781Z,6.4
2023-04-14T10:31:25.370Z,6.2
2023-04-14T10:32:33.792Z,6.2
2023-04-14T10:33:42.122Z,6.2
2023-04-14T10:34:50.690Z,6.8
2023-04-14T10:35:59.081Z,6.8
2023-04-14T10:37:07.459Z,6.8
2023-04-14T10:38:16.046Z,6.8
2023-04-14T10:39:24.524Z,6.8
2023-04-14T10:40:32.845Z,6.8
2023-04-14T10:41:41.459Z,7.2
2023-04-14T10:42:49.839Z,7.2
2023-04-14T10:43:58.262Z,7.2
2023-04-14T10:45:06.872Z,6.9
2023-04-14T10:46:16.236Z,6.9
2023-04-14T10:47:23.593Z,6.9
2023-04-14T10:48:32.158Z,7.8
2023-04-14T10:49:40.521Z,7.8
2023-04-14T10:50:48.875Z,7.8
2023-04-14T10:51:57.468Z,8.2
2023-04-14T10:53:05.823Z,8.2
2023-04-14T10:54:14.168Z,8.2
2023-04-14T10:55:22.721Z,8.7
2023-04-14T10:56:31.093Z,8.7
2023-04-14T10:57:39.449Z,8.7
2023-04-14T10:58:48.014Z,5.1
2023-04-14T10:59:56.377Z,5.1
2023-04-14T11:01:04.731Z,5.1
2023-04-14T11:02:13.333Z,5.1
2023-04-14T11:03:21.753Z,5.1
2023-04-14T11:04:30.173Z,5.1
2023-04-14T11:05:38.671Z,4.8
2023-04-14T11:06:47.031Z,4.8
2023-04-14T11:07:55.385Z,4.8
2023-04-14T11:09:04.057Z,5.9
2023-04-14T11:10:12.339Z,5.9
2023-04-14T11:11:20.696Z,5.9
2023-04-14T11:12:29.288Z,5.7
2023-04-14T11:13:37.631Z,5.7
2023-04-14T11:14:46.031Z,5.7
2023-04-14T11:15:54.592Z,6.4
2023-04-14T11:17:04.556Z,6.4
2023-04-14T11:18:11.546Z,6.4
2023-04-14T11:19:20.058Z,6.4
2023-04-14T11:20:28.433Z,6.4
2023-04-14T11:21:36.780Z,6.4
2023-04-14T11:22:45.362Z,6.7
2023-04-14T11:23:56.185Z,6.7
2023-04-14T11:25:06.524Z,6.7
2023-04-14T11:26:15.732Z,7.3
2023-04-14T11:27:24.161Z,7.3
2023-04-14T11:28:32.523Z,7.3
2023-04-14T11:29:41.076Z,7
2023-04-14T11:30:49.441Z,7
2023-04-14T11:31:57.884Z,7
2023-04-14T11:33:06.487Z,8.5
2023-04-14T11:34:14.829Z,8.5
2023-04-14T11:35:23.157Z,8.5
2023-04-14T11:36:31.727Z,7.7
2023-04-14T11:37:40.072Z,7.7
2023-04-14T11:38:48.420Z,7.7
2023-04-14T11:39:56.971Z,7.8
2023-04-14T11:41:05.328Z,7.8
2023-04-14T11:42:13.729Z,7.8
2023-04-14T11:43:22.989Z,9.4
2023-04-14T11:44:30.684Z,9.4
2023-04-14T11:45:39.685Z,9.4
2023-04-14T11:46:48.222Z,13.4
2023-04-14T11:47:56.606Z,13.4
2023-04-14T11:49:05.032Z,13.4
2023-04-14T11:50:13.563Z,12.3
2023-04-14T11:51:21.933Z,12.3
2023-04-14T11:52:30.351Z,12.3
2023-04-14T11:53:38.897Z,8.7
2023-04-14T11:54:47.317Z,8.7
2023-04-14T11:55:55.636Z,8.7
2023-04-14T11:57:04.219Z,7.2
2023-04-14T11:58:12.578Z,7.2
2023-04-14T11:59:20.925Z,7.2
2023-04-14T12:00:29.479Z,6.4
2023-04-14T12:01:37.842Z,6.4
2023-04-14T12:02:46.412Z,6.4
2023-04-14T12:03:54.780Z,6.9
2023-04-14T12:05:03.212Z,6.9
2023-04-14T12:06:11.430Z,6.9
2023-04-14T12:07:20.014Z,6.8
2023-04-14T12:08:28.354Z,6.8
2023-04-14T12:09:36.680Z,6.8
2023-04-14T12:10:45.439Z,6.4
2023-04-14T12:11:53.774Z,6.4
2023-04-14T12:13:02.129Z,6.4
2023-04-14T12:14:10.688Z,6.9
2023-04-14T12:15:19.014Z,6.9
2023-04-14T12:16:27.400Z,6.9
2023-04-14T12:17:35.959Z,7.3
2023-04-14T12:18:44.298Z,7.3
2023-04-14T12:19:52.629Z,7.3
2023-04-14T12:21:01.200Z,6.2
2023-04-14T12:22:09.541Z,6.2
2023-04-14T12:23:17.868Z,6.2
2023-04-14T12:24:26.470Z,6.1
2023-04-14T12:25:34.792Z,6.1
2023-04-14T12:26:43.134Z,6.1
2023-04-14T12:27:51.686Z,5.6
2023-04-14T12:29:00.141Z,5.6
2023-04-14T12:30:08.367Z,5.6
2023-04-14T12:31:16.955Z,4.4
2023-04-14T12:32:25.348Z,4.4
2023-04-14T12:33:33.792Z,4.4
2023-04-14T12:34:42.365Z,3.8
2023-04-14T12:35:50.702Z,3.8
2023-04-14T12:36:59.062Z,3.8
2023-04-14T12:38:07.601Z,4.7
2023-04-14T12:39:15.941Z,4.7
2023-04-14T12:40:24.330Z,4.7
2023-04-14T12:41:32.868Z,5
2023-04-14T12:42:41.283Z,5
2023-04-14T12:43:49.717Z,5
2023-04-14T12:44:58.321Z,5
2023-04-14T12:46:06.640Z,5
2023-04-14T12:47:15.085Z,5
2023-04-14T12:48:23.608Z,5.3
2023-04-14T12:49:32.131Z,5.3
2023-04-14T12:50:40.522Z,5.3
2023-04-14T12:51:49.120Z,5.8
2023-04-14T12:52:57.499Z,5.8
2023-04-14T12:54:05.944Z,5.8
2023-04-14T12:55:14.478Z,5.8
2023-04-14T12:56:22.919Z,5.8
2023-04-14T12:57:31.332Z,5.8
2023-04-14T12:58:39.928Z,6.2
2023-04-14T12:59:48.306Z,6.2
2023-04-14T13:00:56.687Z,6.2
2023-04-14T13:02:05.285Z,6.4
2023-04-14T13:03:13.842Z,6.4
2023-04-14T13:04:22.239Z,6.4
2023-04-14T13:05:30.795Z,6
2023-04-14T13:06:39.243Z,6
2023-04-14T13:07:47.703Z,6
2023-04-14T13:08:56.359Z,6.3
2023-04-14T13:10:04.777Z,6.3
2023-04-14T13:11:13.211Z,6.3
2023-04-14T13:12:21.871Z,5.8
2023-04-14T13:13:30.239Z,5.8
2023-04-14T13:14:39.163Z,5.8
2023-04-14T13:16:10.942Z,6.3
2023-04-14T13:16:56.160Z,6.3
2023-04-14T13:18:04.111Z,6.3
2023-04-14T13:19:12.727Z,5.7
2023-04-14T13:20:21.199Z,5.7
2023-04-14T13:21:29.664Z,5.7
2023-04-14T13:22:38.341Z,5.7
2023-04-14T13:23:46.771Z,5.7
2023-04-14T13:24:55.165Z,5.7
2023-04-14T13:26:03.804Z,5.9
2023-04-14T13:27:12.233Z,5.9
2023-04-14T13:28:20.686Z,5.9
2023-04-14T13:29:29.314Z,6.3
2023-04-14T13:30:37.830Z,6.3
2023-04-14T13:31:46.395Z,6.3
2023-04-14T13:32:55.092Z,6.4
2023-04-14T13:34:03.553Z,6.4
2023-04-14T13:35:12.032Z,6.4
2023-04-14T13:36:20.721Z,6
2023-04-14T13:37:29.172Z,6
2023-04-14T13:38:37.597Z,6
2023-04-14T13:39:46.283Z,6.9
2023-04-14T13:40:54.775Z,6.9
2023-04-14T13:42:03.212Z,6.9
2023-04-14T13:43:11.883Z,7
2023-04-14T13:44:20.358Z,7
2023-04-14T13:45:28.805Z,7
2023-04-14T13:46:41.107Z,6.8
2023-04-14T13:47:45.976Z,6.8
2023-04-14T13:48:54.409Z,6.8
2023-04-14T13:50:03.121Z,6.4
2023-04-14T13:51:11.500Z,6.4
2023-04-14T13:52:19.978Z,6.4
2023-04-14T13:53:28.653Z,7
2023-04-14T13:54:37.124Z,7
2023-04-14T13:55:45.608Z,7
2023-04-14T13:56:54.276Z,7.9
2023-04-14T13:58:02.678Z,7.9
2023-04-14T13:59:11.043Z,7.9
2023-04-14T14:00:19.644Z,8.1
2023-04-14T14:01:28.040Z,8.1
2023-04-14T14:02:36.421Z,8.1
2023-04-14T14:03:45.132Z,7.4
2023-04-14T14:04:53.328Z,7.4
2023-04-14T14:06:01.658Z,7.4
2023-04-14T14:07:10.240Z,8.8
2023-04-14T14:08:18.611Z,8.8
2023-04-14T14:09:26.960Z,8.8
2023-04-14T14:10:35.522Z,8.8
2023-04-14T14:11:43.877Z,8.8
2023-04-14T14:12:52.232Z,8.8
2023-04-14T14:14:00.987Z,7.8
2023-04-14T14:15:09.244Z,7.8
2023-04-14T14:16:29.411Z,7.8
2023-04-14T14:17:26.164Z,8.3
2023-04-14T14:18:34.530Z,8.3
2023-04-14T14:19:42.890Z,8.3
2023-04-14T14:20:51.478Z,7.8
2023-04-14T14:21:59.850Z,7.8
2023-04-14T14:23:08.191Z,7.8
2023-04-14T14:24:16.778Z,7.4
2023-04-14T14:25:25.149Z,7.4
2023-04-14T14:26:33.537Z,7.4
2023-04-14T14:27:42.096Z,6.4
2023-04-14T14:28:50.436Z,6.4
2023-04-14T14:29:58.800Z,6.4
2023-04-14T14:31:07.518Z,7
2023-04-14T14:32:15.847Z,7
2023-04-14T14:33:24.191Z,7
2023-04-14T14:34:32.796Z,7.2
2023-04-14T14:35:41.171Z,7.2
2023-04-14T14:36:49.565Z,7.2
2023-04-14T14:37:59.045Z,6.9
2023-04-14T14:39:06.501Z,6.9
2023-04-14T14:40:14.843Z,6.9
2023-04-14T14:41:23.389Z,6.6
2023-04-14T14:42:31.746Z,6.6
2023-04-14T14:43:40.093Z,6.6
2023-04-14T14:44:48.660Z,6.4
2023-04-14T14:45:57.010Z,6.4
2023-04-14T14:47:05.690Z,6.4
2023-04-14T14:48:14.270Z,5.9
2023-04-14T14:49:22.640Z,5.9
2023-04-14T14:50:30.986Z,5.9
2023-04-14T14:51:39.586Z,5.9
2023-04-14T14:52:47.881Z,5.9
2023-04-14T14:54:04.421Z,5.9
2023-04-14T14:55:04.854Z,5.7
2023-04-14T14:56:13.232Z,5.7
2023-04-14T14:57:21.598Z,5.7
2023-04-14T14:58:30.176Z,5.8
2023-04-14T14:59:38.562Z,5.8
2023-04-14T15:00:46.946Z,5.8
2023-04-14T15:01:55.612Z,5.2
2023-04-14T15:03:03.933Z,5.2
2023-04-14T15:04:12.327Z,5.2
2023-04-14T15:05:20.826Z,5.9
2023-04-14T15:06:29.208Z,5.9
2023-04-14T15:39:56.927Z,0
2023-04-14T15:41:05.965Z,0
2023-04-14T15:42:13.677Z,0
2023-04-14T15:43:22.278Z,5.3
2023-04-14T15:44:30.689Z,5.3
2023-04-14T15:45:39.087Z,5.3
2023-04-14T15:46:47.667Z,4.9
2023-04-14T15:47:56.105Z,4.9
2023-04-14T15:49:04.457Z,4.9
2023-04-14T15:50:13.100Z,4.3
2023-04-14T15:51:21.464Z,4.3
2023-04-14T15:52:29.830Z,4.3
2023-04-14T15:53:38.450Z,4.8
2023-04-14T15:54:46.844Z,4.8
2023-04-14T15:55:55.279Z,4.8
2023-04-14T15:57:03.866Z,5.1
2023-04-14T15:58:12.247Z,5.1
2023-04-14T15:59:20.662Z,5.1
2023-04-14T16:00:29.273Z,8.2
2023-04-14T16:01:37.707Z,8.2
2023-04-14T16:02:46.337Z,8.2
2023-04-14T16:03:54.741Z,21
2023-04-14T16:05:03.077Z,21
2023-04-14T16:06:11.460Z,21
2023-04-14T16:07:20.091Z,5.1
2023-04-14T16:08:28.466Z,5.1
2023-04-14T16:09:36.856Z,5.1
2023-04-14T16:10:45.448Z,4.1
2023-04-14T16:11:53.868Z,4.1
2023-04-14T16:13:02.256Z,4.1
2023-04-14T16:14:10.853Z,3.9
2023-04-14T16:15:19.242Z,3.9
2023-04-14T16:16:27.624Z,3.9
2023-04-14T16:17:36.262Z,3.5
2023-04-14T16:18:44.635Z,3.5
2023-04-14T16:19:53.014Z,3.5